Baru Satu — H9AN — position and weather

sailwx.info

Track history (hours):
 
Tides and Currents Weather Stations Pressure Air Temp Water Temp Dewpoint Dewpoint Depression Visibility Wind Speed Wind Dir Waves Ship Positions

Baru Satu

Last reported at 2017-Nov-18 17:29 UTC. Time now 2017-Nov-21 20:59 UTC.
Position N 37°49' W 011°54'.

Length 137 m; draft 7.2 m.

Type: Cargo ship. MMSI: 371043000.

Date/timePositionNaut miles runAvg speedWind from/ knotsBaromVisibWave heightAir tempDewpointWater temp
2017-Nov-18 17:29N 37°49' W 011°54'612.7
2017-Nov-18 16:59N 37°55' W 011°52'612.3
2017-Nov-18 16:29N 38°01' W 011°50'1212.4
2017-Nov-18 15:33N 38°12' W 011°46'812.4
2017-Nov-18 14:53N 38°20' W 011°43'1012.3
2017-Nov-18 14:04N 38°30' W 011°40'7912.2
2017-Nov-18 07:39N 39°46' W 011°13'212.1
2017-Nov-18 07:30N 39°47' W 011°12'612.1
2017-Nov-18 07:00N 39°53' W 011°10'1712.2
2017-Nov-18 05:39N 40°09' W 011°05'212.3
2017-Nov-18 05:30N 40°11' W 011°04'612.4
2017-Nov-18 05:00N 40°17' W 011°02'612.3
2017-Nov-18 04:31N 40°23' W 010°59'612.2
2017-Nov-18 04:00N 40°29' W 010°57'612.3
2017-Nov-18 03:30N 40°34' W 010°55'611.9
2017-Nov-18 03:01N 40°40' W 010°53'611.7
2017-Nov-18 02:31N 40°46' W 010°51'712.1
2017-Nov-18 01:55N 40°53' W 010°48'512.1
2017-Nov-18 01:30N 40°58' W 010°47'611.9
2017-Nov-18 01:00N 41°03' W 010°45'611.8
2017-Nov-18 00:30N 41°09' W 010°42'811.9
2017-Nov-17 23:48N 41°17' W 010°39'412.2
2017-Nov-17 23:31N 41°20' W 010°38'2312.0
2017-Nov-17 21:37N 41°43' W 010°31'212.0
2017-Nov-17 21:28N 41°44' W 010°30'37511.7
2017-Nov-16 13:28N 46°12' W 004°25'511.8
2017-Nov-16 13:00N 46°15' W 004°18'611.7
2017-Nov-16 12:30N 46°18' W 004°11'611.7
2017-Nov-16 12:00N 46°21' W 004°04'711.7
2017-Nov-16 11:25N 46°25' W 003°56'511.8
2017-Nov-16 10:59N 46°28' W 003°50'611.6
2017-Nov-16 10:29N 46°31' W 003°43'611.7
2017-Nov-16 10:00N 46°35' W 003°37'611.4
2017-Nov-16 09:30N 46°37' W 003°29'612.0
2017-Nov-16 09:00N 46°41' W 003°22'812.1
2017-Nov-16 08:20N 46°46' W 003°13'412.3
2017-Nov-16 08:00N 46°48' W 003°08'612.6
2017-Nov-16 07:30N 46°51' W 003°00'612.8
2017-Nov-16 07:00N 46°55' W 002°52'612.6
2017-Nov-16 06:30N 46°59' W 002°45'612.2
2017-Nov-16 06:00N 47°01' W 002°37'714.6
2017-Nov-16 05:30N 47°04' W 002°27'510.0
2017-Nov-16 05:00N 47°08' W 002°22'611.4
2017-Nov-16 04:30N 47°12' W 002°17'5 9.9
2017-Nov-16 04:00N 47°16' W 002°12'611.2
2017-Nov-16 03:30N 47°18' W 002°05'4 8.1
2017-Nov-16 03:00N 47°17' W 001°59'5 9.2
2017-Nov-16 02:30N 47°16' W 001°52'4 7.8
2017-Nov-16 02:00N 47°13' W 001°49'3 6.8
2017-Nov-16 01:30N 47°12' W 001°44'3 6.5
2017-Nov-16 01:00N 47°12' W 001°39'2 3.8
2017-Nov-16 00:30N 47°12' W 001°36'0 0.0
2017-Nov-15 23:57N 47°12' W 001°36'0 0.0
2017-Nov-15 23:30N 47°12' W 001°36'0 0.0
2017-Nov-15 22:57N 47°12' W 001°36'0 0.0
2017-Nov-15 22:30N 47°12' W 001°36'0 0.0
2017-Nov-15 22:00N 47°12' W 001°36'0 0.0
2017-Nov-15 21:30N 47°12' W 001°36'0 0.0
2017-Nov-15 21:00N 47°12' W 001°36'0 0.0
2017-Nov-15 20:24N 47°12' W 001°36'0 0.0
2017-Nov-15 20:00N 47°12' W 001°36'0 0.0
2017-Nov-15 19:30N 47°12' W 001°36'0 0.0
2017-Nov-15 18:57N 47°12' W 001°36'0 0.0
2017-Nov-15 18:30N 47°12' W 001°36'0 0.0
2017-Nov-15 18:00N 47°12' W 001°36'0 0.0
2017-Nov-15 17:30N 47°12' W 001°36'0 0.0
2017-Nov-15 17:00N 47°12' W 001°36'0 0.0
2017-Nov-15 16:30N 47°12' W 001°36'0 0.0
2017-Nov-15 15:48N 47°12' W 001°36'0 0.0
2017-Nov-15 15:12N 47°12' W 001°36'0 0.0
2017-Nov-15 14:57N 47°12' W 001°36'0 0.0
2017-Nov-15 14:27N 47°12' W 001°36'0 0.0
2017-Nov-15 14:00N 47°12' W 001°36'0 0.0
2017-Nov-15 13:30N 47°12' W 001°36'0 0.0
2017-Nov-15 13:00N 47°12' W 001°36'0 0.0
2017-Nov-15 12:27N 47°12' W 001°36'0 0.0
2017-Nov-15 12:00N 47°12' W 001°36'0 0.0
2017-Nov-15 11:30N 47°12' W 001°36'0 0.0
2017-Nov-15 11:00N 47°12' W 001°36'0 0.0
2017-Nov-15 10:27N 47°12' W 001°36'0 0.0
2017-Nov-15 10:00N 47°12' W 001°36'0 0.0
2017-Nov-15 09:27N 47°12' W 001°36'0 0.0
2017-Nov-15 08:54N 47°12' W 001°36'0 0.0
2017-Nov-15 08:30N 47°12' W 001°36'0 0.0
2017-Nov-15 07:57N 47°12' W 001°36'0 0.0
2017-Nov-15 07:30N 47°12' W 001°36'0 0.0
2017-Nov-15 07:00N 47°12' W 001°36'0 0.0
2017-Nov-15 06:31N 47°12' W 001°36'0 0.0
2017-Nov-15 06:00N 47°12' W 001°36'0 0.0
2017-Nov-15 05:30N 47°12' W 001°36'0 0.0
2017-Nov-15 05:01N 47°12' W 001°36'0 0.0
2017-Nov-15 04:31N 47°12' W 001°36'0 0.0
2017-Nov-15 03:58N 47°12' W 001°36'0 0.0
2017-Nov-15 03:28N 47°12' W 001°36'0 0.0
2017-Nov-15 02:58N 47°12' W 001°36'0 0.0
2017-Nov-15 02:28N 47°12' W 001°36'0 0.0
2017-Nov-15 01:58N 47°12' W 001°36'0 0.0
2017-Nov-15 01:25N 47°12' W 001°36'0 0.0
2017-Nov-15 01:00N 47°12' W 001°36'0 0.0
2017-Nov-15 00:24N 47°12' W 001°36'0 0.0
2017-Nov-15 00:00N 47°12' W 001°36'0 0.0
2017-Nov-14 23:31N 47°12' W 001°36'0 0.0
2017-Nov-14 22:59N 47°12' W 001°36'0 0.0
2017-Nov-14 22:29N 47°12' W 001°36'0 0.0
2017-Nov-14 21:53N 47°12' W 001°36'0 0.0
2017-Nov-14 21:29N 47°12' W 001°36'0 0.0
2017-Nov-14 20:59N 47°12' W 001°36'0 0.0
2017-Nov-14 20:20N 47°12' W 001°36'0 0.0
2017-Nov-14 19:59N 47°12' W 001°36'0 0.0
2017-Nov-14 19:29N 47°12' W 001°36'0 0.0
2017-Nov-14 18:53N 47°12' W 001°36'0 0.0
2017-Nov-14 18:29N 47°12' W 001°36'0 0.0
2017-Nov-14 17:59N 47°12' W 001°36'0 0.0
2017-Nov-14 17:26N 47°12' W 001°36'0 0.0
2017-Nov-14 16:59N 47°12' W 001°36'0 0.0
2017-Nov-14 16:29N 47°12' W 001°36'0 0.0
2017-Nov-14 15:56N 47°12' W 001°36'0 0.0
2017-Nov-14 15:29N 47°12' W 001°36'0 0.0
2017-Nov-14 14:59N 47°12' W 001°36'0 0.0
2017-Nov-14 14:29N 47°12' W 001°36'0 0.0
2017-Nov-14 13:59N 47°12' W 001°36'0 0.0
2017-Nov-14 13:29N 47°12' W 001°36'0 0.0
2017-Nov-14 12:59N 47°12' W 001°36'0 0.0
2017-Nov-14 12:29N 47°12' W 001°36'0 0.1
2017-Nov-14 12:01N 47°12' W 001°36'0 0.5
2017-Nov-14 11:31N 47°12' W 001°36'5 9.1
2017-Nov-14 11:00N 47°12' W 001°43'611.4
2017-Nov-14 10:30N 47°14' W 001°50'611.8
2017-Nov-14 10:00N 47°17' W 001°58'612.5
2017-Nov-14 09:31N 47°18' W 002°07'611.9
2017-Nov-14 09:01N 47°15' W 002°14'611.3
2017-Nov-14 08:31N 47°10' W 002°19'4 6.6
2017-Nov-14 07:58N 47°08' W 002°23'0 0.2
2017-Nov-14 07:25N 47°08' W 002°23'1 2.7
2017-Nov-14 07:00N 47°07' W 002°24'4 8.7
2017-Nov-14 06:30N 47°03' W 002°28'611.9
2017-Nov-14 06:00N 47°01' W 002°36'811.6
2017-Nov-14 05:20N 46°55' W 002°43'612.5
2017-Nov-14 04:52N 46°49' W 002°47'412.3
2017-Nov-14 04:30N 46°45' W 002°49'712.3
2017-Nov-14 03:57N 46°39' W 002°46'512.4
2017-Nov-14 03:30N 46°34' W 002°42'612.1
2017-Nov-14 03:00N 46°30' W 002°35'612.3
2017-Nov-14 02:30N 46°27' W 002°28'712.2
2017-Nov-14 01:58N 46°23' W 002°20'612.1
2017-Nov-14 01:30N 46°20' W 002°13'612.0
2017-Nov-14 01:00N 46°18' W 002°05'611.8
2017-Nov-14 00:30N 46°15' W 001°58'611.9
2017-Nov-14 00:00N 46°12' W 001°50'611.7
2017-Nov-13 23:29N 46°09' W 001°43'611.9
2017-Nov-13 22:59N 46°07' W 001°35'612.0
2017-Nov-13 22:30N 46°06' W 001°26'611.7
2017-Nov-13 22:00N 46°05' W 001°18'3 0.1
2017-Nov-13 01:58N 46°05' W 001°14'0 0.0
2017-Nov-13 01:28N 46°05' W 001°14'0 0.0
2017-Nov-13 00:58N 46°05' W 001°14'0 0.0
2017-Nov-13 00:28N 46°05' W 001°14'0 0.0
2017-Nov-12 23:58N 46°05' W 001°14'0 0.0
2017-Nov-12 23:28N 46°05' W 001°14'0 0.0
2017-Nov-12 22:58N 46°05' W 001°14'0 0.0
2017-Nov-12 22:28N 46°05' W 001°14'0 0.0
2017-Nov-12 21:58N 46°05' W 001°14'0 0.0
2017-Nov-12 21:28N 46°05' W 001°14'0 0.0
2017-Nov-12 20:58N 46°05' W 001°14'0 0.0
2017-Nov-12 20:28N 46°05' W 001°14'0 0.0
2017-Nov-12 19:58N 46°05' W 001°14'0 0.1
2017-Nov-12 19:28N 46°05' W 001°14'0 0.0
2017-Nov-12 18:58N 46°05' W 001°14'0 0.1
2017-Nov-12 18:28N 46°05' W 001°14'0 0.0
2017-Nov-12 17:58N 46°05' W 001°14'0 0.1
2017-Nov-12 17:28N 46°05' W 001°14'0 0.1
2017-Nov-12 16:58N 46°05' W 001°14'0 0.1
2017-Nov-12 16:28N 46°05' W 001°14'0 0.0
2017-Nov-12 15:58N 46°05' W 001°14'0 0.1
2017-Nov-12 15:28N 46°05' W 001°14'0 0.0
2017-Nov-12 14:58N 46°05' W 001°14'0 0.1
2017-Nov-12 14:28N 46°05' W 001°14'0 0.1
2017-Nov-12 13:58N 46°05' W 001°14'0 0.1
2017-Nov-12 13:28N 46°05' W 001°14'0 0.1
2017-Nov-12 12:58N 46°05' W 001°14'0 0.0
2017-Nov-12 12:28N 46°05' W 001°14'0 0.0
2017-Nov-12 11:58N 46°05' W 001°14'0 0.0
2017-Nov-12 11:28N 46°05' W 001°14'0 0.0
2017-Nov-12 11:00N 46°05' W 001°14'3 5.9
2017-Nov-12 10:30N 46°06' W 001°18'612.0
2017-Nov-12 10:00N 46°07' W 001°27'613.0
2017-Nov-12 09:30N 46°07' W 001°36'713.0
2017-Nov-12 09:00N 46°07' W 001°45'8310.3
2017-Nov-12 00:58N 44°44' W 001°53'5 9.5
2017-Nov-12 00:29N 44°40' W 001°52'510.0
2017-Nov-12 00:00N 44°35' W 001°53'510.0
2017-Nov-11 23:29N 44°30' W 001°53'610.6
2017-Nov-11 22:55N 44°24' W 001°55'410.8
2017-Nov-11 22:30N 44°20' W 001°57'510.6
2017-Nov-11 22:00N 44°14' W 001°59'510.8
2017-Nov-11 21:30N 44°09' W 001°60'510.9
2017-Nov-11 21:00N 44°04' W 002°01'510.9
2017-Nov-11 20:31N 43°58' W 002°03'510.3
2017-Nov-11 20:00N 43°53' W 002°04'510.7
2017-Nov-11 19:30N 43°48' W 002°05'510.8
2017-Nov-11 19:01N 43°43' W 002°06'510.7
2017-Nov-11 18:30N 43°37' W 002°08'5 9.2
2017-Nov-11 18:00N 43°33' W 002°06'4 8.9
2017-Nov-11 17:30N 43°29' W 002°03'5 9.1
2017-Nov-11 17:01N 43°26' W 001°59'5 9.4
2017-Nov-11 16:31N 43°22' W 001°56'2 4.4
2017-Nov-11 16:01N 43°19' W 001°55'0 0.0
2017-Nov-11 15:07N 43°19' W 001°55'0 0.0
2017-Nov-11 14:55N 43°19' W 001°55'0 0.0
2017-Nov-11 14:25N 43°19' W 001°55'0 0.0
2017-Nov-11 13:55N 43°19' W 001°55'0 0.0
2017-Nov-11 13:13N 43°19' W 001°55'0 0.0
2017-Nov-11 12:58N 43°19' W 001°55'0 0.0
2017-Nov-11 12:25N 43°19' W 001°55'0 0.0
2017-Nov-11 11:43N 43°19' W 001°55'0 0.0
2017-Nov-11 11:25N 43°19' W 001°55'0 0.0
2017-Nov-11 10:58N 43°19' W 001°55'0 0.0
2017-Nov-11 09:37N 43°19' W 001°55'0 0.0
2017-Nov-11 09:13N 43°19' W 001°55'0 0.0
2017-Nov-11 08:49N 43°19' W 001°55'0 0.0
2017-Nov-11 08:25N 43°19' W 001°55'0 0.0
2017-Nov-11 07:58N 43°19' W 001°55'0 0.0
2017-Nov-11 07:13N 43°19' W 001°55'0 0.0
2017-Nov-11 06:37N 43°19' W 001°55'0 0.0
2017-Nov-11 06:19N 43°19' W 001°55'0 0.0
2017-Nov-11 05:55N 43°19' W 001°55'0 0.0
2017-Nov-11 05:19N 43°19' W 001°55'0 0.0
2017-Nov-11 04:55N 43°19' W 001°55'0 0.0
2017-Nov-11 04:25N 43°19' W 001°55'0 0.0
2017-Nov-11 03:52N 43°19' W 001°55'0 0.0
2017-Nov-11 02:25N 43°19' W 001°55'0 0.0
2017-Nov-11 01:40N 43°19' W 001°55'0 0.0
2017-Nov-11 01:19N 43°19' W 001°55'0 0.0
2017-Nov-11 00:49N 43°19' W 001°55'0 0.0
2017-Nov-11 00:13N 43°19' W 001°55'0 0.0
2017-Nov-10 23:58N 43°19' W 001°55'0 0.0
2017-Nov-10 22:55N 43°19' W 001°55'0 0.0
2017-Nov-10 19:04N 43°19' W 001°55'0 0.0
2017-Nov-10 18:55N 43°19' W 001°55'0 0.0
2017-Nov-10 17:25N 43°19' W 001°55'0 0.0
2017-Nov-10 16:49N 43°19' W 001°55'0 0.0
2017-Nov-10 16:25N 43°19' W 001°55'0 0.0
2017-Nov-10 15:58N 43°19' W 001°55'0 0.0
2017-Nov-10 15:25N 43°19' W 001°55'0 0.0
2017-Nov-10 14:58N 43°19' W 001°55'0 0.0
2017-Nov-10 14:25N 43°19' W 001°55'0 0.0
2017-Nov-10 13:58N 43°19' W 001°55'0 0.0
2017-Nov-10 13:16N 43°19' W 001°55'0 0.0
2017-Nov-10 12:55N 43°19' W 001°55'0 0.0
2017-Nov-10 12:07N 43°19' W 001°55'0 0.0
2017-Nov-10 11:43N 43°19' W 001°55'0 0.0
2017-Nov-10 11:19N 43°19' W 001°55'0 0.0
2017-Nov-10 09:31N 43°19' W 001°55'0 0.0
2017-Nov-10 08:01N 43°19' W 001°55'0 0.0
2017-Nov-10 07:55N 43°19' W 001°55'0 0.0
2017-Nov-10 03:19N 43°19' W 001°55'0 0.0
2017-Nov-10 02:07N 43°19' W 001°55'0 0.0
2017-Nov-10 01:55N 43°19' W 001°55'0 0.0
2017-Nov-10 00:31N 43°19' W 001°55'0 0.0
2017-Nov-10 00:25N 43°19' W 001°55'0 0.0
2017-Nov-09 19:01N 43°19' W 001°55'0 0.1
2017-Nov-09 18:55N 43°19' W 001°55'0 0.0
2017-Nov-09 15:50N 43°19' W 001°55'0 0.2
2017-Nov-09 15:22N 43°19' W 001°55'0 0.0
2017-Nov-09 14:55N 43°19' W 001°55'0 0.0
2017-Nov-09 14:28N 43°19' W 001°55'0 0.0
2017-Nov-09 13:55N 43°19' W 001°55'0 0.0
2017-Nov-09 13:28N 43°19' W 001°55'0 0.0
2017-Nov-09 12:49N 43°19' W 001°55'0 0.0
2017-Nov-09 12:28N 43°19' W 001°55'0 0.0
2017-Nov-09 11:49N 43°19' W 001°55'0 0.0
2017-Nov-09 11:28N 43°19' W 001°55'0 0.0
2017-Nov-09 10:55N 43°19' W 001°55'0 0.0
2017-Nov-09 10:28N 43°19' W 001°55'0 0.0
2017-Nov-09 09:58N 43°19' W 001°55'0 0.0
2017-Nov-09 09:28N 43°19' W 001°55'0 0.0
2017-Nov-09 08:34N 43°19' W 001°55'0 0.1
2017-Nov-09 08:28N 43°19' W 001°55'0 0.0
2017-Nov-09 07:52N 43°19' W 001°55'0 0.0
2017-Nov-09 07:28N 43°19' W 001°55'0 0.0
2017-Nov-09 06:52N 43°19' W 001°55'0 0.0
2017-Nov-09 06:28N 43°19' W 001°55'0 0.0
2017-Nov-09 05:58N 43°19' W 001°55'0 0.0
2017-Nov-09 05:28N 43°19' W 001°55'0 0.0
2017-Nov-09 04:58N 43°19' W 001°55'0 0.0
2017-Nov-09 04:28N 43°19' W 001°55'0 0.0
2017-Nov-09 03:52N 43°19' W 001°55'0 0.0
2017-Nov-09 03:28N 43°19' W 001°55'0 0.0
2017-Nov-09 02:58N 43°19' W 001°55'0 0.0
2017-Nov-09 02:25N 43°19' W 001°55'0 0.0
2017-Nov-09 01:58N 43°19' W 001°55'0 0.0
2017-Nov-09 01:28N 43°19' W 001°55'0 0.0
2017-Nov-09 00:58N 43°19' W 001°55'0 0.0
2017-Nov-09 00:28N 43°19' W 001°55'0 0.0
2017-Nov-08 23:55N 43°19' W 001°55'0 0.0
2017-Nov-08 23:28N 43°19' W 001°55'0 0.0
2017-Nov-08 22:58N 43°19' W 001°55'0 0.0
2017-Nov-08 22:22N 43°19' W 001°55'0 0.0
2017-Nov-08 21:58N 43°19' W 001°55'0 0.0
2017-Nov-08 21:22N 43°19' W 001°55'0 0.0
2017-Nov-08 20:58N 43°19' W 001°55'0 0.0
2017-Nov-08 20:28N 43°19' W 001°55'0 0.0
2017-Nov-08 19:55N 43°19' W 001°55'0 0.0
2017-Nov-08 19:22N 43°19' W 001°55'0 0.0
2017-Nov-08 18:52N 43°19' W 001°55'0 0.0
2017-Nov-08 18:28N 43°19' W 001°55'  
Track history (hours):
 
Tides and Currents Weather Stations Pressure Air Temp Water Temp Dewpoint Dewpoint Depression Visibility Wind Speed Wind Dir Waves Ship Positions

Baru Satu

Last reported at 2017-Nov-18 17:29 UTC. Time now 2017-Nov-21 20:59 UTC.
Position N 37°49' W 011°54'.

Length 137 m; draft 7.2 m.

Type: Cargo ship. MMSI: 371043000.

Date/timePositionNaut miles runAvg speedWind from/ knotsBaromVisibWave heightAir tempDewpointWater temp
2017-Nov-18 17:29N 37°49' W 011°54'612.7
2017-Nov-18 16:59N 37°55' W 011°52'612.3
2017-Nov-18 16:29N 38°01' W 011°50'1212.4
2017-Nov-18 15:33N 38°12' W 011°46'812.4
2017-Nov-18 14:53N 38°20' W 011°43'1012.3
2017-Nov-18 14:04N 38°30' W 011°40'7912.2
2017-Nov-18 07:39N 39°46' W 011°13'212.1
2017-Nov-18 07:30N 39°47' W 011°12'612.1
2017-Nov-18 07:00N 39°53' W 011°10'1712.2
2017-Nov-18 05:39N 40°09' W 011°05'212.3
2017-Nov-18 05:30N 40°11' W 011°04'612.4
2017-Nov-18 05:00N 40°17' W 011°02'612.3
2017-Nov-18 04:31N 40°23' W 010°59'612.2
2017-Nov-18 04:00N 40°29' W 010°57'612.3
2017-Nov-18 03:30N 40°34' W 010°55'611.9
2017-Nov-18 03:01N 40°40' W 010°53'611.7
2017-Nov-18 02:31N 40°46' W 010°51'712.1
2017-Nov-18 01:55N 40°53' W 010°48'512.1
2017-Nov-18 01:30N 40°58' W 010°47'611.9
2017-Nov-18 01:00N 41°03' W 010°45'611.8
2017-Nov-18 00:30N 41°09' W 010°42'811.9
2017-Nov-17 23:48N 41°17' W 010°39'412.2
2017-Nov-17 23:31N 41°20' W 010°38'2312.0
2017-Nov-17 21:37N 41°43' W 010°31'212.0
2017-Nov-17 21:28N 41°44' W 010°30'37511.7
2017-Nov-16 13:28N 46°12' W 004°25'511.8
2017-Nov-16 13:00N 46°15' W 004°18'611.7
2017-Nov-16 12:30N 46°18' W 004°11'611.7
2017-Nov-16 12:00N 46°21' W 004°04'711.7
2017-Nov-16 11:25N 46°25' W 003°56'511.8
2017-Nov-16 10:59N 46°28' W 003°50'611.6
2017-Nov-16 10:29N 46°31' W 003°43'611.7
2017-Nov-16 10:00N 46°35' W 003°37'611.4
2017-Nov-16 09:30N 46°37' W 003°29'612.0
2017-Nov-16 09:00N 46°41' W 003°22'812.1
2017-Nov-16 08:20N 46°46' W 003°13'412.3
2017-Nov-16 08:00N 46°48' W 003°08'612.6
2017-Nov-16 07:30N 46°51' W 003°00'612.8
2017-Nov-16 07:00N 46°55' W 002°52'612.6
2017-Nov-16 06:30N 46°59' W 002°45'612.2
2017-Nov-16 06:00N 47°01' W 002°37'714.6
2017-Nov-16 05:30N 47°04' W 002°27'510.0
2017-Nov-16 05:00N 47°08' W 002°22'611.4
2017-Nov-16 04:30N 47°12' W 002°17'5 9.9
2017-Nov-16 04:00N 47°16' W 002°12'611.2
2017-Nov-16 03:30N 47°18' W 002°05'4 8.1
2017-Nov-16 03:00N 47°17' W 001°59'5 9.2
2017-Nov-16 02:30N 47°16' W 001°52'4 7.8
2017-Nov-16 02:00N 47°13' W 001°49'3 6.8
2017-Nov-16 01:30N 47°12' W 001°44'3 6.5
2017-Nov-16 01:00N 47°12' W 001°39'2 3.8
2017-Nov-16 00:30N 47°12' W 001°36'0 0.0
2017-Nov-15 23:57N 47°12' W 001°36'0 0.0
2017-Nov-15 23:30N 47°12' W 001°36'0 0.0
2017-Nov-15 22:57N 47°12' W 001°36'0 0.0
2017-Nov-15 22:30N 47°12' W 001°36'0 0.0
2017-Nov-15 22:00N 47°12' W 001°36'0 0.0
2017-Nov-15 21:30N 47°12' W 001°36'0 0.0
2017-Nov-15 21:00N 47°12' W 001°36'0 0.0
2017-Nov-15 20:24N 47°12' W 001°36'0 0.0
2017-Nov-15 20:00N 47°12' W 001°36'0 0.0
2017-Nov-15 19:30N 47°12' W 001°36'0 0.0
2017-Nov-15 18:57N 47°12' W 001°36'0 0.0
2017-Nov-15 18:30N 47°12' W 001°36'0 0.0
2017-Nov-15 18:00N 47°12' W 001°36'0 0.0
2017-Nov-15 17:30N 47°12' W 001°36'0 0.0
2017-Nov-15 17:00N 47°12' W 001°36'0 0.0
2017-Nov-15 16:30N 47°12' W 001°36'0 0.0
2017-Nov-15 15:48N 47°12' W 001°36'0 0.0
2017-Nov-15 15:12N 47°12' W 001°36'0 0.0
2017-Nov-15 14:57N 47°12' W 001°36'0 0.0
2017-Nov-15 14:27N 47°12' W 001°36'0 0.0
2017-Nov-15 14:00N 47°12' W 001°36'0 0.0
2017-Nov-15 13:30N 47°12' W 001°36'0 0.0
2017-Nov-15 13:00N 47°12' W 001°36'0 0.0
2017-Nov-15 12:27N 47°12' W 001°36'0 0.0
2017-Nov-15 12:00N 47°12' W 001°36'0 0.0
2017-Nov-15 11:30N 47°12' W 001°36'0 0.0
2017-Nov-15 11:00N 47°12' W 001°36'0 0.0
2017-Nov-15 10:27N 47°12' W 001°36'0 0.0
2017-Nov-15 10:00N 47°12' W 001°36'0 0.0
2017-Nov-15 09:27N 47°12' W 001°36'0 0.0
2017-Nov-15 08:54N 47°12' W 001°36'0 0.0
2017-Nov-15 08:30N 47°12' W 001°36'0 0.0
2017-Nov-15 07:57N 47°12' W 001°36'0 0.0
2017-Nov-15 07:30N 47°12' W 001°36'0 0.0
2017-Nov-15 07:00N 47°12' W 001°36'0 0.0
2017-Nov-15 06:31N 47°12' W 001°36'0 0.0
2017-Nov-15 06:00N 47°12' W 001°36'0 0.0
2017-Nov-15 05:30N 47°12' W 001°36'0 0.0
2017-Nov-15 05:01N 47°12' W 001°36'0 0.0
2017-Nov-15 04:31N 47°12' W 001°36'0 0.0
2017-Nov-15 03:58N 47°12' W 001°36'0 0.0
2017-Nov-15 03:28N 47°12' W 001°36'0 0.0
2017-Nov-15 02:58N 47°12' W 001°36'0 0.0
2017-Nov-15 02:28N 47°12' W 001°36'0 0.0
2017-Nov-15 01:58N 47°12' W 001°36'0 0.0
2017-Nov-15 01:25N 47°12' W 001°36'0 0.0
2017-Nov-15 01:00N 47°12' W 001°36'0 0.0
2017-Nov-15 00:24N 47°12' W 001°36'0 0.0
2017-Nov-15 00:00N 47°12' W 001°36'0 0.0
2017-Nov-14 23:31N 47°12' W 001°36'0 0.0
2017-Nov-14 22:59N 47°12' W 001°36'0 0.0
2017-Nov-14 22:29N 47°12' W 001°36'0 0.0
2017-Nov-14 21:53N 47°12' W 001°36'0 0.0
2017-Nov-14 21:29N 47°12' W 001°36'0 0.0
2017-Nov-14 20:59N 47°12' W 001°36'0 0.0
2017-Nov-14 20:20N 47°12' W 001°36'0 0.0
2017-Nov-14 19:59N 47°12' W 001°36'0 0.0
2017-Nov-14 19:29N 47°12' W 001°36'0 0.0
2017-Nov-14 18:53N 47°12' W 001°36'0 0.0
2017-Nov-14 18:29N 47°12' W 001°36'0 0.0
2017-Nov-14 17:59N 47°12' W 001°36'0 0.0
2017-Nov-14 17:26N 47°12' W 001°36'0 0.0
2017-Nov-14 16:59N 47°12' W 001°36'0 0.0
2017-Nov-14 16:29N 47°12' W 001°36'0 0.0
2017-Nov-14 15:56N 47°12' W 001°36'0 0.0
2017-Nov-14 15:29N 47°12' W 001°36'0 0.0
2017-Nov-14 14:59N 47°12' W 001°36'0 0.0
2017-Nov-14 14:29N 47°12' W 001°36'0 0.0
2017-Nov-14 13:59N 47°12' W 001°36'0 0.0
2017-Nov-14 13:29N 47°12' W 001°36'0 0.0
2017-Nov-14 12:59N 47°12' W 001°36'0 0.0
2017-Nov-14 12:29N 47°12' W 001°36'0 0.1
2017-Nov-14 12:01N 47°12' W 001°36'0 0.5
2017-Nov-14 11:31N 47°12' W 001°36'5 9.1
2017-Nov-14 11:00N 47°12' W 001°43'611.4
2017-Nov-14 10:30N 47°14' W 001°50'611.8
2017-Nov-14 10:00N 47°17' W 001°58'612.5
2017-Nov-14 09:31N 47°18' W 002°07'611.9
2017-Nov-14 09:01N 47°15' W 002°14'611.3
2017-Nov-14 08:31N 47°10' W 002°19'4 6.6
2017-Nov-14 07:58N 47°08' W 002°23'0 0.2
2017-Nov-14 07:25N 47°08' W 002°23'1 2.7
2017-Nov-14 07:00N 47°07' W 002°24'4 8.7
2017-Nov-14 06:30N 47°03' W 002°28'611.9
2017-Nov-14 06:00N 47°01' W 002°36'811.6
2017-Nov-14 05:20N 46°55' W 002°43'612.5
2017-Nov-14 04:52N 46°49' W 002°47'412.3
2017-Nov-14 04:30N 46°45' W 002°49'712.3
2017-Nov-14 03:57N 46°39' W 002°46'512.4
2017-Nov-14 03:30N 46°34' W 002°42'612.1
2017-Nov-14 03:00N 46°30' W 002°35'612.3
2017-Nov-14 02:30N 46°27' W 002°28'712.2
2017-Nov-14 01:58N 46°23' W 002°20'612.1
2017-Nov-14 01:30N 46°20' W 002°13'612.0
2017-Nov-14 01:00N 46°18' W 002°05'611.8
2017-Nov-14 00:30N 46°15' W 001°58'611.9
2017-Nov-14 00:00N 46°12' W 001°50'611.7
2017-Nov-13 23:29N 46°09' W 001°43'611.9
2017-Nov-13 22:59N 46°07' W 001°35'612.0
2017-Nov-13 22:30N 46°06' W 001°26'611.7
2017-Nov-13 22:00N 46°05' W 001°18'3 0.1
2017-Nov-13 01:58N 46°05' W 001°14'0 0.0
2017-Nov-13 01:28N 46°05' W 001°14'0 0.0
2017-Nov-13 00:58N 46°05' W 001°14'0 0.0
2017-Nov-13 00:28N 46°05' W 001°14'0 0.0
2017-Nov-12 23:58N 46°05' W 001°14'0 0.0
2017-Nov-12 23:28N 46°05' W 001°14'0 0.0
2017-Nov-12 22:58N 46°05' W 001°14'0 0.0
2017-Nov-12 22:28N 46°05' W 001°14'0 0.0
2017-Nov-12 21:58N 46°05' W 001°14'0 0.0
2017-Nov-12 21:28N 46°05' W 001°14'0 0.0
2017-Nov-12 20:58N 46°05' W 001°14'0 0.0
2017-Nov-12 20:28N 46°05' W 001°14'0 0.0
2017-Nov-12 19:58N 46°05' W 001°14'0 0.1
2017-Nov-12 19:28N 46°05' W 001°14'0 0.0
2017-Nov-12 18:58N 46°05' W 001°14'0 0.1
2017-Nov-12 18:28N 46°05' W 001°14'0 0.0
2017-Nov-12 17:58N 46°05' W 001°14'0 0.1
2017-Nov-12 17:28N 46°05' W 001°14'0 0.1
2017-Nov-12 16:58N 46°05' W 001°14'0 0.1
2017-Nov-12 16:28N 46°05' W 001°14'0 0.0
2017-Nov-12 15:58N 46°05' W 001°14'0 0.1
2017-Nov-12 15:28N 46°05' W 001°14'0 0.0
2017-Nov-12 14:58N 46°05' W 001°14'0 0.1
2017-Nov-12 14:28N 46°05' W 001°14'0 0.1
2017-Nov-12 13:58N 46°05' W 001°14'0 0.1
2017-Nov-12 13:28N 46°05' W 001°14'0 0.1
2017-Nov-12 12:58N 46°05' W 001°14'0 0.0
2017-Nov-12 12:28N 46°05' W 001°14'0 0.0
2017-Nov-12 11:58N 46°05' W 001°14'0 0.0
2017-Nov-12 11:28N 46°05' W 001°14'0 0.0
2017-Nov-12 11:00N 46°05' W 001°14'3 5.9
2017-Nov-12 10:30N 46°06' W 001°18'612.0
2017-Nov-12 10:00N 46°07' W 001°27'613.0
2017-Nov-12 09:30N 46°07' W 001°36'713.0
2017-Nov-12 09:00N 46°07' W 001°45'8310.3
2017-Nov-12 00:58N 44°44' W 001°53'5 9.5
2017-Nov-12 00:29N 44°40' W 001°52'510.0
2017-Nov-12 00:00N 44°35' W 001°53'510.0
2017-Nov-11 23:29N 44°30' W 001°53'610.6
2017-Nov-11 22:55N 44°24' W 001°55'410.8
2017-Nov-11 22:30N 44°20' W 001°57'510.6
2017-Nov-11 22:00N 44°14' W 001°59'510.8
2017-Nov-11 21:30N 44°09' W 001°60'510.9
2017-Nov-11 21:00N 44°04' W 002°01'510.9
2017-Nov-11 20:31N 43°58' W 002°03'510.3
2017-Nov-11 20:00N 43°53' W 002°04'510.7
2017-Nov-11 19:30N 43°48' W 002°05'510.8
2017-Nov-11 19:01N 43°43' W 002°06'510.7
2017-Nov-11 18:30N 43°37' W 002°08'5 9.2
2017-Nov-11 18:00N 43°33' W 002°06'4 8.9
2017-Nov-11 17:30N 43°29' W 002°03'5 9.1
2017-Nov-11 17:01N 43°26' W 001°59'5 9.4
2017-Nov-11 16:31N 43°22' W 001°56'2 4.4
2017-Nov-11 16:01N 43°19' W 001°55'0 0.0
2017-Nov-11 15:07N 43°19' W 001°55'0 0.0
2017-Nov-11 14:55N 43°19' W 001°55'0 0.0
2017-Nov-11 14:25N 43°19' W 001°55'0 0.0
2017-Nov-11 13:55N 43°19' W 001°55'0 0.0
2017-Nov-11 13:13N 43°19' W 001°55'0 0.0
2017-Nov-11 12:58N 43°19' W 001°55'0 0.0
2017-Nov-11 12:25N 43°19' W 001°55'0 0.0
2017-Nov-11 11:43N 43°19' W 001°55'0 0.0
2017-Nov-11 11:25N 43°19' W 001°55'0 0.0
2017-Nov-11 10:58N 43°19' W 001°55'0 0.0
2017-Nov-11 09:37N 43°19' W 001°55'0 0.0
2017-Nov-11 09:13N 43°19' W 001°55'0 0.0
2017-Nov-11 08:49N 43°19' W 001°55'0 0.0
2017-Nov-11 08:25N 43°19' W 001°55'0 0.0
2017-Nov-11 07:58N 43°19' W 001°55'0 0.0
2017-Nov-11 07:13N 43°19' W 001°55'0 0.0
2017-Nov-11 06:37N 43°19' W 001°55'0 0.0
2017-Nov-11 06:19N 43°19' W 001°55'0 0.0
2017-Nov-11 05:55N 43°19' W 001°55'0 0.0
2017-Nov-11 05:19N 43°19' W 001°55'0 0.0
2017-Nov-11 04:55N 43°19' W 001°55'0 0.0
2017-Nov-11 04:25N 43°19' W 001°55'0 0.0
2017-Nov-11 03:52N 43°19' W 001°55'0 0.0
2017-Nov-11 02:25N 43°19' W 001°55'0 0.0
2017-Nov-11 01:40N 43°19' W 001°55'0 0.0
2017-Nov-11 01:19N 43°19' W 001°55'0 0.0
2017-Nov-11 00:49N 43°19' W 001°55'0 0.0
2017-Nov-11 00:13N 43°19' W 001°55'0 0.0
2017-Nov-10 23:58N 43°19' W 001°55'0 0.0
2017-Nov-10 22:55N 43°19' W 001°55'0 0.0
2017-Nov-10 19:04N 43°19' W 001°55'0 0.0
2017-Nov-10 18:55N 43°19' W 001°55'0 0.0
2017-Nov-10 17:25N 43°19' W 001°55'0 0.0
2017-Nov-10 16:49N 43°19' W 001°55'0 0.0
2017-Nov-10 16:25N 43°19' W 001°55'0 0.0
2017-Nov-10 15:58N 43°19' W 001°55'0 0.0
2017-Nov-10 15:25N 43°19' W 001°55'0 0.0
2017-Nov-10 14:58N 43°19' W 001°55'0 0.0
2017-Nov-10 14:25N 43°19' W 001°55'0 0.0
2017-Nov-10 13:58N 43°19' W 001°55'0 0.0
2017-Nov-10 13:16N 43°19' W 001°55'0 0.0
2017-Nov-10 12:55N 43°19' W 001°55'0 0.0
2017-Nov-10 12:07N 43°19' W 001°55'0 0.0
2017-Nov-10 11:43N 43°19' W 001°55'0 0.0
2017-Nov-10 11:19N 43°19' W 001°55'0 0.0
2017-Nov-10 09:31N 43°19' W 001°55'0 0.0
2017-Nov-10 08:01N 43°19' W 001°55'0 0.0
2017-Nov-10 07:55N 43°19' W 001°55'0 0.0
2017-Nov-10 03:19N 43°19' W 001°55'0 0.0
2017-Nov-10 02:07N 43°19' W 001°55'0 0.0
2017-Nov-10 01:55N 43°19' W 001°55'0 0.0
2017-Nov-10 00:31N 43°19' W 001°55'0 0.0
2017-Nov-10 00:25N 43°19' W 001°55'0 0.0
2017-Nov-09 19:01N 43°19' W 001°55'0 0.1
2017-Nov-09 18:55N 43°19' W 001°55'0 0.0
2017-Nov-09 15:50N 43°19' W 001°55'0 0.2
2017-Nov-09 15:22N 43°19' W 001°55'0 0.0
2017-Nov-09 14:55N 43°19' W 001°55'0 0.0
2017-Nov-09 14:28N 43°19' W 001°55'0 0.0
2017-Nov-09 13:55N 43°19' W 001°55'0 0.0
2017-Nov-09 13:28N 43°19' W 001°55'0 0.0
2017-Nov-09 12:49N 43°19' W 001°55'0 0.0
2017-Nov-09 12:28N 43°19' W 001°55'0 0.0
2017-Nov-09 11:49N 43°19' W 001°55'0 0.0
2017-Nov-09 11:28N 43°19' W 001°55'0 0.0
2017-Nov-09 10:55N 43°19' W 001°55'0 0.0
2017-Nov-09 10:28N 43°19' W 001°55'0 0.0
2017-Nov-09 09:58N 43°19' W 001°55'0 0.0
2017-Nov-09 09:28N 43°19' W 001°55'0 0.0
2017-Nov-09 08:34N 43°19' W 001°55'0 0.1
2017-Nov-09 08:28N 43°19' W 001°55'0 0.0
2017-Nov-09 07:52N 43°19' W 001°55'0 0.0
2017-Nov-09 07:28N 43°19' W 001°55'0 0.0
2017-Nov-09 06:52N 43°19' W 001°55'0 0.0
2017-Nov-09 06:28N 43°19' W 001°55'0 0.0
2017-Nov-09 05:58N 43°19' W 001°55'0 0.0
2017-Nov-09 05:28N 43°19' W 001°55'0 0.0
2017-Nov-09 04:58N 43°19' W 001°55'0 0.0
2017-Nov-09 04:28N 43°19' W 001°55'0 0.0
2017-Nov-09 03:52N 43°19' W 001°55'0 0.0
2017-Nov-09 03:28N 43°19' W 001°55'0 0.0
2017-Nov-09 02:58N 43°19' W 001°55'0 0.0
2017-Nov-09 02:25N 43°19' W 001°55'0 0.0
2017-Nov-09 01:58N 43°19' W 001°55'0 0.0
2017-Nov-09 01:28N 43°19' W 001°55'0 0.0
2017-Nov-09 00:58N 43°19' W 001°55'0 0.0
2017-Nov-09 00:28N 43°19' W 001°55'0 0.0
2017-Nov-08 23:55N 43°19' W 001°55'0 0.0
2017-Nov-08 23:28N 43°19' W 001°55'0 0.0
2017-Nov-08 22:58N 43°19' W 001°55'0 0.0
2017-Nov-08 22:22N 43°19' W 001°55'0 0.0
2017-Nov-08 21:58N 43°19' W 001°55'0 0.0
2017-Nov-08 21:22N 43°19' W 001°55'0 0.0
2017-Nov-08 20:58N 43°19' W 001°55'0 0.0
2017-Nov-08 20:28N 43°19' W 001°55'0 0.0
2017-Nov-08 19:55N 43°19' W 001°55'0 0.0
2017-Nov-08 19:22N 43°19' W 001°55'0 0.0
2017-Nov-08 18:52N 43°19' W 001°55'0 0.0
2017-Nov-08 18:28N 43°19' W 001°55'  

Dump ship's entire track history